createdAt,value
2019-03-17T00:00:29.799Z,4.22
2019-03-17T00:02:56.477Z,4.12
2019-03-17T00:05:23.182Z,4.20
2019-03-17T00:07:49.875Z,4.75
2019-03-17T00:10:16.674Z,4.35
2019-03-17T00:12:43.414Z,4.50
2019-03-17T00:15:10.186Z,3.87
2019-03-17T00:17:36.886Z,4.33
2019-03-17T00:20:05.122Z,4.12
2019-03-17T00:22:31.845Z,4.40
2019-03-17T00:25:08.496Z,4.67
2019-03-17T00:27:27.121Z,4.08
2019-03-17T00:29:53.889Z,3.80
2019-03-17T00:32:20.614Z,4.72
2019-03-17T00:34:47.345Z,4.10
2019-03-17T00:37:14.057Z,4.45
2019-03-17T00:39:40.666Z,4.22
2019-03-17T00:42:07.324Z,3.90
2019-03-17T00:44:34.102Z,4.05
2019-03-17T00:47:00.738Z,4.62
2019-03-17T00:49:27.375Z,3.98
2019-03-17T00:51:54.077Z,4.42
2019-03-17T00:54:20.692Z,4.50
2019-03-17T00:56:47.292Z,4.08
2019-03-17T00:59:13.993Z,4.20
2019-03-17T01:01:40.652Z,4.55
2019-03-17T01:04:07.287Z,4.25
2019-03-17T01:06:34.005Z,4.25
2019-03-17T01:09:00.641Z,4.20
2019-03-17T01:11:27.258Z,4.33
2019-03-17T01:13:53.972Z,4.12
2019-03-17T01:16:20.753Z,4.30
2019-03-17T01:18:47.508Z,4.50
2019-03-17T01:21:14.242Z,4.03
2019-03-17T01:23:40.866Z,3.90
2019-03-17T01:26:07.562Z,3.95
2019-03-17T01:28:34.254Z,4.20
2019-03-17T01:31:01.123Z,4.28
2019-03-17T01:33:27.846Z,4.20
2019-03-17T01:35:54.563Z,4.87
2019-03-17T01:38:21.201Z,4.58
2019-03-17T01:40:47.879Z,4.65
2019-03-17T01:43:14.558Z,4.03
2019-03-17T01:45:41.254Z,4.33
2019-03-17T01:48:08.095Z,4.20
2019-03-17T01:50:34.797Z,5.28
2019-03-17T01:53:01.433Z,5.08
2019-03-17T01:55:28.216Z,3.98
2019-03-17T01:57:54.957Z,5.30
2019-03-17T02:00:21.555Z,4.37
2019-03-17T02:02:48.419Z,4.80
2019-03-17T02:05:22.044Z,4.30
2019-03-17T02:07:43.737Z,4.20
2019-03-17T02:10:10.495Z,5.42
2019-03-17T02:12:37.324Z,4.35
2019-03-17T02:15:06.563Z,5.30
2019-03-17T02:17:33.363Z,4.87
2019-03-17T02:20:00.345Z,5.35
2019-03-17T02:22:27.082Z,4.17
2019-03-17T02:24:53.748Z,4.40
2019-03-17T02:27:20.413Z,5.17
2019-03-17T02:29:47.047Z,4.70
2019-03-17T02:32:13.735Z,4.37
2019-03-17T02:34:40.417Z,4.62
2019-03-17T02:37:07.123Z,4.53
2019-03-17T02:39:33.821Z,4.67
2019-03-17T02:42:00.551Z,5.40
2019-03-17T02:44:27.184Z,4.97
2019-03-17T02:46:53.866Z,5.00
2019-03-17T02:49:20.556Z,4.85
2019-03-17T02:51:47.533Z,5.30
2019-03-17T02:54:14.308Z,4.28
2019-03-17T02:56:41.040Z,4.42
2019-03-17T02:59:07.654Z,4.65
2019-03-17T03:01:34.329Z,4.72
2019-03-17T03:04:01.015Z,4.33
2019-03-17T03:06:27.723Z,4.85
2019-03-17T03:08:54.424Z,5.35
2019-03-17T03:11:21.143Z,5.20
2019-03-17T03:13:47.778Z,5.40
2019-03-17T03:16:14.474Z,5.12
2019-03-17T03:18:42.103Z,5.28
2019-03-17T03:21:08.768Z,5.70
2019-03-17T03:23:35.596Z,4.47
2019-03-17T03:26:02.380Z,4.97
2019-03-17T03:28:30.064Z,5.20
2019-03-17T03:30:56.797Z,5.53
2019-03-17T03:33:23.499Z,5.17
2019-03-17T03:35:50.105Z,4.70
2019-03-17T03:38:16.801Z,5.22
2019-03-17T03:40:43.504Z,5.03
2019-03-17T03:43:10.223Z,5.10
2019-03-17T03:45:36.875Z,5.28
2019-03-17T03:48:03.647Z,5.58
2019-03-17T03:50:30.495Z,4.55
2019-03-17T03:52:57.166Z,5.37
2019-03-17T03:55:23.895Z,5.25
2019-03-17T03:57:50.538Z,4.65
2019-03-17T04:00:17.243Z,4.97
2019-03-17T04:02:43.947Z,4.75
2019-03-17T04:05:10.593Z,4.97
2019-03-17T04:07:37.255Z,5.30
2019-03-17T04:10:08.540Z,5.53
2019-03-17T04:12:36.234Z,5.05
2019-03-17T04:15:05.871Z,4.85
2019-03-17T04:17:32.598Z,5.40
2019-03-17T04:19:59.386Z,4.62
2019-03-17T04:22:26.033Z,5.15
2019-03-17T04:24:52.738Z,5.10
2019-03-17T04:27:19.418Z,4.95
2019-03-17T04:29:46.059Z,5.42
2019-03-17T04:32:12.771Z,5.60
2019-03-17T04:34:39.399Z,5.75
2019-03-17T04:37:06.094Z,4.90
2019-03-17T04:39:32.826Z,5.15
2019-03-17T04:41:59.517Z,4.70
2019-03-17T04:44:26.234Z,5.67
2019-03-17T04:46:53.952Z,5.58
2019-03-17T04:49:20.636Z,5.28
2019-03-17T04:51:47.339Z,5.05
2019-03-17T04:54:14.216Z,4.78
2019-03-17T04:56:40.884Z,4.72
2019-03-17T04:59:07.610Z,5.12
2019-03-17T05:01:34.432Z,4.50
2019-03-17T05:04:01.173Z,4.25
2019-03-17T05:06:27.899Z,4.05
2019-03-17T05:08:54.652Z,4.50
2019-03-17T05:11:21.400Z,4.53
2019-03-17T05:13:48.081Z,4.67
2019-03-17T05:16:14.782Z,4.03
2019-03-17T05:18:41.491Z,4.72
2019-03-17T05:21:08.290Z,4.50
2019-03-17T05:23:35.040Z,4.35
2019-03-17T05:26:01.654Z,4.42
2019-03-17T05:28:28.406Z,5.00
2019-03-17T05:30:55.174Z,4.53
2019-03-17T05:33:21.786Z,4.70
2019-03-17T05:35:48.423Z,4.70
2019-03-17T05:38:15.115Z,4.72
2019-03-17T05:40:41.739Z,5.03
2019-03-17T05:43:08.373Z,5.28
2019-03-17T05:45:35.054Z,4.78
2019-03-17T05:48:01.699Z,4.50
2019-03-17T05:50:28.534Z,5.65
2019-03-17T05:52:55.239Z,5.05
2019-03-17T05:55:21.877Z,4.83
2019-03-17T05:57:48.517Z,5.15
2019-03-17T06:00:16.609Z,5.08
2019-03-17T06:02:43.409Z,5.42
2019-03-17T06:05:10.049Z,4.65
2019-03-17T06:07:36.753Z,5.12
2019-03-17T06:10:04.791Z,4.60
2019-03-17T06:12:31.457Z,4.25
2019-03-17T06:14:58.136Z,4.58
2019-03-17T06:17:24.773Z,4.08
2019-03-17T06:19:51.408Z,4.10
2019-03-17T06:22:19.087Z,4.20
2019-03-17T06:24:45.816Z,4.28
2019-03-17T06:27:12.515Z,4.67
2019-03-17T06:29:39.243Z,5.10
2019-03-17T06:32:05.863Z,5.33
2019-03-17T06:34:33.683Z,5.28
2019-03-17T06:37:00.385Z,4.80
2019-03-17T06:39:27.122Z,5.05
2019-03-17T06:41:53.915Z,4.40
2019-03-17T06:44:20.628Z,4.62
2019-03-17T06:46:47.240Z,4.05
2019-03-17T06:49:13.909Z,4.65
2019-03-17T06:51:40.631Z,4.47
2019-03-17T06:54:07.331Z,4.10
2019-03-17T06:56:35.178Z,4.40
2019-03-17T06:59:01.890Z,4.28
2019-03-17T07:01:28.509Z,4.35
2019-03-17T07:03:55.160Z,4.72
2019-03-17T07:06:21.885Z,4.10
2019-03-17T07:08:48.528Z,4.55
2019-03-17T07:11:15.133Z,4.17
2019-03-17T07:13:41.834Z,4.00
2019-03-17T07:16:08.463Z,4.80
2019-03-17T07:18:35.079Z,4.30
2019-03-17T07:21:01.809Z,4.47
2019-03-17T07:23:29.347Z,4.58
2019-03-17T07:25:57.027Z,4.45
2019-03-17T07:28:24.730Z,3.90
2019-03-17T07:30:51.371Z,4.60
2019-03-17T07:33:18.058Z,4.75
2019-03-17T07:35:46.342Z,4.62
2019-03-17T07:38:13.313Z,4.95
2019-03-17T07:40:40.078Z,4.25
2019-03-17T07:43:06.815Z,3.90
2019-03-17T07:45:33.442Z,4.17
2019-03-17T07:48:00.119Z,4.58
2019-03-17T07:50:26.833Z,4.28
2019-03-17T07:52:53.541Z,4.00
2019-03-17T07:55:20.249Z,3.83
2019-03-17T07:57:47.039Z,4.47
2019-03-17T08:00:13.884Z,4.85
2019-03-17T08:02:40.616Z,4.47
2019-03-17T08:05:08.631Z,4.58
2019-03-17T08:07:35.326Z,4.45
2019-03-17T08:10:03.569Z,4.40
2019-03-17T08:12:30.349Z,4.33
2019-03-17T08:14:57.866Z,4.20
2019-03-17T08:17:24.741Z,4.00
2019-03-17T08:19:51.468Z,4.10
2019-03-17T08:22:18.127Z,4.12
2019-03-17T08:24:44.873Z,4.35
2019-03-17T08:27:11.586Z,4.33
2019-03-17T08:29:38.223Z,4.17
2019-03-17T08:32:04.995Z,4.20
2019-03-17T08:34:31.695Z,4.65
2019-03-17T08:36:58.458Z,4.10
2019-03-17T08:39:25.191Z,4.35
2019-03-17T08:41:52.043Z,4.15
2019-03-17T08:44:18.780Z,3.67
2019-03-17T08:46:45.512Z,4.20
2019-03-17T08:49:12.256Z,3.75
2019-03-17T08:51:38.999Z,5.22
2019-03-17T08:54:05.739Z,4.03
2019-03-17T08:56:32.581Z,4.05
2019-03-17T08:58:59.319Z,4.75
2019-03-17T09:01:26.050Z,4.15
2019-03-17T09:03:52.789Z,3.50
2019-03-17T09:06:19.539Z,4.17
2019-03-17T09:08:46.276Z,4.53
2019-03-17T09:11:13.111Z,4.45
2019-03-17T09:13:39.949Z,3.83
2019-03-17T09:16:06.700Z,4.80
2019-03-17T09:18:33.441Z,4.50
2019-03-17T09:21:00.076Z,4.00
2019-03-17T09:23:26.807Z,3.45
2019-03-17T09:25:53.784Z,4.00
2019-03-17T09:28:20.592Z,4.25
2019-03-17T09:30:47.335Z,3.87
2019-03-17T09:33:14.189Z,4.15
2019-03-17T09:35:40.820Z,3.95
2019-03-17T09:38:07.555Z,3.85
2019-03-17T09:40:34.289Z,3.98
2019-03-17T09:43:01.035Z,4.58
2019-03-17T09:45:27.880Z,4.20
2019-03-17T09:47:54.610Z,4.90
2019-03-17T09:50:21.349Z,4.22
2019-03-17T09:52:48.096Z,3.90
2019-03-17T09:55:14.947Z,3.98
2019-03-17T09:57:41.571Z,3.83
2019-03-17T10:00:11.818Z,3.85
2019-03-17T10:02:38.532Z,4.62
2019-03-17T10:05:05.994Z,4.00
2019-03-17T10:07:32.733Z,3.75
2019-03-17T10:09:59.466Z,3.77
2019-03-17T10:12:26.100Z,3.52
2019-03-17T10:14:52.855Z,3.83
2019-03-17T10:17:19.612Z,3.25
2019-03-17T10:19:46.328Z,4.20
2019-03-17T10:22:12.975Z,3.62
2019-03-17T10:24:39.695Z,3.12
2019-03-17T10:27:06.444Z,3.77
2019-03-17T10:29:33.186Z,3.27
2019-03-17T10:31:59.853Z,3.15
2019-03-17T10:34:26.657Z,5.17
2019-03-17T10:36:53.401Z,3.72
2019-03-17T10:39:20.147Z,3.62
2019-03-17T10:41:46.879Z,4.08
2019-03-17T10:44:13.721Z,3.65
2019-03-17T10:46:40.462Z,3.70
2019-03-17T10:49:07.201Z,3.20
2019-03-17T10:51:33.940Z,3.58
2019-03-17T10:54:00.737Z,4.33
2019-03-17T10:56:27.521Z,3.77
2019-03-17T10:58:54.191Z,4.30
2019-03-17T11:01:20.865Z,3.60
2019-03-17T11:03:47.537Z,3.37
2019-03-17T11:06:14.264Z,4.25
2019-03-17T11:08:41.116Z,3.58
2019-03-17T11:11:07.853Z,4.37
2019-03-17T11:13:34.532Z,3.55
2019-03-17T11:16:01.350Z,3.15
2019-03-17T11:18:28.074Z,3.33
2019-03-17T11:20:54.806Z,3.30
2019-03-17T11:23:21.653Z,3.30
2019-03-17T11:25:48.393Z,3.22
2019-03-17T11:28:15.237Z,3.35
2019-03-17T11:30:41.961Z,3.47
2019-03-17T11:33:08.581Z,3.80
2019-03-17T11:35:35.270Z,3.52
2019-03-17T11:38:03.107Z,3.05
2019-03-17T11:40:29.955Z,3.70
2019-03-17T11:42:56.813Z,3.50
2019-03-17T11:45:23.640Z,2.75
2019-03-17T11:47:50.682Z,4.28
2019-03-17T11:50:18.557Z,2.90
2019-03-17T11:52:45.395Z,3.70
2019-03-17T11:55:12.645Z,3.10
2019-03-17T11:57:39.691Z,3.65
2019-03-17T12:00:13.191Z,2.83
2019-03-17T12:02:39.933Z,3.30
2019-03-17T12:05:07.480Z,3.08
2019-03-17T12:07:34.220Z,3.40
2019-03-17T12:10:00.860Z,3.35
2019-03-17T12:12:27.495Z,3.37
2019-03-17T12:14:54.337Z,3.08
2019-03-17T12:17:20.981Z,2.65
2019-03-17T12:19:47.607Z,3.27
2019-03-17T12:22:14.350Z,3.30
2019-03-17T12:24:41.095Z,3.27
2019-03-17T12:27:08.953Z,3.42
2019-03-17T12:29:36.727Z,3.75
2019-03-17T12:32:03.459Z,2.87
2019-03-17T12:34:30.203Z,3.90
2019-03-17T12:36:56.945Z,3.33
2019-03-17T12:39:23.574Z,3.17
2019-03-17T12:41:50.312Z,4.00
2019-03-17T12:44:17.165Z,3.47
2019-03-17T12:46:44.216Z,3.30
2019-03-17T12:49:11.044Z,3.52
2019-03-17T12:51:37.995Z,2.70
2019-03-17T12:54:04.734Z,3.67
2019-03-17T12:56:31.578Z,4.12
2019-03-17T12:58:58.311Z,3.47
2019-03-17T13:01:25.053Z,3.58
2019-03-17T13:03:51.764Z,3.52
2019-03-17T13:06:18.535Z,3.50
2019-03-17T13:08:45.165Z,3.52
2019-03-17T13:11:11.909Z,3.65
2019-03-17T13:13:38.641Z,3.10
2019-03-17T13:16:05.395Z,3.27
2019-03-17T13:18:32.123Z,3.00
2019-03-17T13:20:58.968Z,3.65
2019-03-17T13:23:25.601Z,4.03
2019-03-17T13:25:52.341Z,4.10
2019-03-17T13:28:19.180Z,5.85
2019-03-17T13:30:46.766Z,3.83
2019-03-17T13:33:13.490Z,4.42
2019-03-17T13:35:40.330Z,3.62
2019-03-17T13:38:07.075Z,4.33
2019-03-17T13:40:33.901Z,4.67
2019-03-17T13:43:00.640Z,4.22
2019-03-17T13:45:27.383Z,3.42
2019-03-17T13:47:54.230Z,3.52
2019-03-17T13:50:22.069Z,3.60
2019-03-17T13:52:48.694Z,3.87
2019-03-17T13:55:15.367Z,4.37
2019-03-17T13:57:51.808Z,4.78
2019-03-17T14:00:18.573Z,3.90
2019-03-17T14:02:45.422Z,3.85
2019-03-17T14:05:13.073Z,3.10
2019-03-17T14:07:39.717Z,4.05
2019-03-17T14:10:14.116Z,4.42
2019-03-17T14:12:40.872Z,3.85
2019-03-17T14:15:10.244Z,3.80
2019-03-17T14:17:38.033Z,3.98
2019-03-17T14:20:10.751Z,3.75
2019-03-17T14:22:37.370Z,4.37
2019-03-17T14:25:07.786Z,4.35
2019-03-17T14:27:34.472Z,3.80
2019-03-17T14:30:01.114Z,4.22
2019-03-17T14:32:27.937Z,4.87
2019-03-17T14:34:54.672Z,4.55
2019-03-17T14:37:21.370Z,4.17
2019-03-17T14:39:48.117Z,4.37
2019-03-17T14:42:14.825Z,4.90
2019-03-17T14:44:41.595Z,5.15
2019-03-17T14:47:08.335Z,5.33
2019-03-17T14:49:35.073Z,4.90
2019-03-17T14:52:01.705Z,5.55
2019-03-17T14:54:28.393Z,5.67
2019-03-17T14:56:55.094Z,4.90
2019-03-17T14:59:21.814Z,4.65
2019-03-17T15:01:48.559Z,5.28
2019-03-17T15:04:15.402Z,4.95
2019-03-17T15:06:42.044Z,5.08
2019-03-17T15:09:08.789Z,4.53
2019-03-17T15:11:35.618Z,4.85
2019-03-17T15:14:02.366Z,5.05
2019-03-17T15:16:29.105Z,4.35
2019-03-17T15:18:55.842Z,4.33
2019-03-17T15:21:22.493Z,4.67
2019-03-17T15:23:49.214Z,4.08
2019-03-17T15:26:15.960Z,4.00
2019-03-17T15:28:42.624Z,4.85
2019-03-17T15:31:12.161Z,4.55
2019-03-17T15:33:38.030Z,5.15
2019-03-17T15:36:04.804Z,4.83
2019-03-17T15:38:31.520Z,5.62
2019-03-17T15:40:58.345Z,5.37
2019-03-17T15:43:24.951Z,6.17
2019-03-17T15:45:51.645Z,6.40
2019-03-17T15:48:18.454Z,6.67
2019-03-17T15:50:45.267Z,7.60
2019-03-17T15:53:12.039Z,9.23
2019-03-17T15:55:38.881Z,8.83
2019-03-17T15:58:05.623Z,8.85
2019-03-17T16:00:32.363Z,8.50
2019-03-17T16:02:59.193Z,8.70
2019-03-17T16:05:25.942Z,7.15
2019-03-17T16:07:52.786Z,7.10
2019-03-17T16:10:26.380Z,4.33
2019-03-17T16:12:53.144Z,6.08
2019-03-17T16:15:19.870Z,4.53
2019-03-17T16:17:47.671Z,4.30
2019-03-17T16:20:21.550Z,4.20
2019-03-17T16:22:49.621Z,4.62
2019-03-17T16:25:18.395Z,5.22
2019-03-17T16:27:45.134Z,5.20
2019-03-17T16:30:24.296Z,5.00
2019-03-17T16:32:51.350Z,5.40
2019-03-17T16:35:18.274Z,5.70
2019-03-17T16:37:45.371Z,5.97
2019-03-17T16:40:23.807Z,5.10
2019-03-17T16:42:53.772Z,5.85
2019-03-17T16:45:20.475Z,5.42
2019-03-17T16:47:47.097Z,5.62
2019-03-17T16:50:19.265Z,4.60
2019-03-17T16:52:47.033Z,5.58
2019-03-17T16:55:14.491Z,5.50
2019-03-17T16:57:41.436Z,4.40
2019-03-17T17:00:19.292Z,4.53
2019-03-17T17:02:46.479Z,4.10
2019-03-17T17:05:14.763Z,4.40
2019-03-17T17:07:41.491Z,4.25
2019-03-17T17:10:13.665Z,4.25
2019-03-17T17:12:40.509Z,5.20
2019-03-17T17:15:10.620Z,6.03
2019-03-17T17:17:37.366Z,5.37
2019-03-17T17:20:07.796Z,4.92
2019-03-17T17:22:34.627Z,5.30
2019-03-17T17:25:01.264Z,5.28
2019-03-17T17:27:28.004Z,5.20
2019-03-17T17:29:54.710Z,5.30
2019-03-17T17:32:21.404Z,5.95
2019-03-17T17:34:48.145Z,5.78
2019-03-17T17:37:14.910Z,5.53
2019-03-17T17:39:41.524Z,5.83
2019-03-17T17:42:10.172Z,5.87
2019-03-17T17:44:36.846Z,5.62
2019-03-17T17:47:03.454Z,5.25
2019-03-17T17:49:30.102Z,5.05
2019-03-17T17:51:56.789Z,5.62
2019-03-17T17:54:23.394Z,5.53
2019-03-17T17:56:50.116Z,4.95
2019-03-17T17:59:16.869Z,4.90
2019-03-17T18:01:43.676Z,5.53
2019-03-17T18:04:10.284Z,5.75
2019-03-17T18:06:36.959Z,5.70
2019-03-17T18:09:05.869Z,5.40
2019-03-17T18:11:32.491Z,6.10
2019-03-17T18:13:59.207Z,5.62
2019-03-17T18:16:25.886Z,6.10
2019-03-17T18:18:52.526Z,6.17
2019-03-17T18:21:19.353Z,5.08
2019-03-17T18:23:45.986Z,5.45
2019-03-17T18:26:12.727Z,5.97
2019-03-17T18:28:40.511Z,6.20
2019-03-17T18:31:07.209Z,5.80
2019-03-17T18:33:33.963Z,5.62
2019-03-17T18:36:00.842Z,5.80
2019-03-17T18:38:27.559Z,5.10
2019-03-17T18:40:55.266Z,6.85
2019-03-17T18:43:21.944Z,5.28
2019-03-17T18:45:48.687Z,5.47
2019-03-17T18:48:15.411Z,5.28
2019-03-17T18:50:42.120Z,6.22
2019-03-17T18:53:08.910Z,7.10
2019-03-17T18:55:35.648Z,6.53
2019-03-17T18:58:02.491Z,6.35
2019-03-17T19:00:29.096Z,5.60
2019-03-17T19:02:55.774Z,6.12
2019-03-17T19:05:22.493Z,5.70
2019-03-17T19:07:49.217Z,7.10
2019-03-17T19:10:16.918Z,6.87
2019-03-17T19:12:45.726Z,5.37
2019-03-17T19:15:16.756Z,5.95
2019-03-17T19:17:43.415Z,5.75
2019-03-17T19:20:19.835Z,6.72
2019-03-17T19:22:46.672Z,6.65
2019-03-17T19:25:14.793Z,6.17
2019-03-17T19:27:41.592Z,6.15
2019-03-17T19:30:14.876Z,7.05
2019-03-17T19:32:41.483Z,6.15
2019-03-17T19:35:08.260Z,6.37
2019-03-17T19:37:34.898Z,5.70
2019-03-17T19:40:01.921Z,5.55
2019-03-17T19:42:28.776Z,6.17
2019-03-17T19:44:55.413Z,6.12
2019-03-17T19:47:22.050Z,5.60
2019-03-17T19:49:48.767Z,6.20
2019-03-17T19:52:15.633Z,5.75
2019-03-17T19:54:42.380Z,5.30
2019-03-17T19:57:09.222Z,5.47
2019-03-17T19:59:35.953Z,5.72
2019-03-17T20:02:02.794Z,5.20
2019-03-17T20:04:32.433Z,5.83
2019-03-17T20:06:58.089Z,5.22
2019-03-17T20:09:24.742Z,5.72
2019-03-17T20:11:51.492Z,5.80
2019-03-17T20:14:18.233Z,5.42
2019-03-17T20:16:44.981Z,5.83
2019-03-17T20:19:11.714Z,5.47
2019-03-17T20:21:38.451Z,5.55
2019-03-17T20:24:05.204Z,6.08
2019-03-17T20:26:32.035Z,5.70
2019-03-17T20:28:59.869Z,4.70
2019-03-17T20:31:26.580Z,5.50
2019-03-17T20:33:53.281Z,5.83
2019-03-17T20:36:19.926Z,5.45
2019-03-17T20:38:46.651Z,5.83
2019-03-17T20:41:13.501Z,5.53
2019-03-17T20:43:40.243Z,6.17
2019-03-17T20:46:06.980Z,6.37
2019-03-17T20:48:33.685Z,6.10
2019-03-17T20:51:00.303Z,6.10
2019-03-17T20:53:27.137Z,6.85
2019-03-17T20:55:54.442Z,5.95
2019-03-17T20:58:21.086Z,6.55
2019-03-17T21:00:47.720Z,6.22
2019-03-17T21:03:14.466Z,7.33
2019-03-17T21:05:41.098Z,6.97
2019-03-17T21:08:07.729Z,6.47
2019-03-17T21:10:34.578Z,6.42
2019-03-17T21:13:01.218Z,5.70
2019-03-17T21:15:27.845Z,6.05
2019-03-17T21:17:54.543Z,6.03
2019-03-17T21:20:21.977Z,6.30
2019-03-17T21:22:48.723Z,6.12
2019-03-17T21:25:15.622Z,5.80
2019-03-17T21:27:42.475Z,6.05
2019-03-17T21:30:23.134Z,6.58
2019-03-17T21:32:49.867Z,5.75
2019-03-17T21:35:16.614Z,5.65
2019-03-17T21:37:43.451Z,5.87
2019-03-17T21:40:11.020Z,5.60
2019-03-17T21:42:37.851Z,5.50
2019-03-17T21:45:11.664Z,5.85
2019-03-17T21:47:38.403Z,5.90
2019-03-17T21:50:11.330Z,6.15
2019-03-17T21:52:38.019Z,5.85
2019-03-17T21:55:07.019Z,5.65
2019-03-17T21:57:33.758Z,6.10
2019-03-17T22:00:00.528Z,6.25
2019-03-17T22:02:27.241Z,5.62
2019-03-17T22:04:53.994Z,5.87
2019-03-17T22:07:20.700Z,6.33
2019-03-17T22:09:47.455Z,6.53
2019-03-17T22:12:14.194Z,5.33
2019-03-17T22:14:41.038Z,5.33
2019-03-17T22:17:07.665Z,5.85
2019-03-17T22:19:34.405Z,5.15
2019-03-17T22:22:01.151Z,4.90
2019-03-17T22:24:27.991Z,5.60
2019-03-17T22:26:54.727Z,5.30
2019-03-17T22:29:21.465Z,5.62
2019-03-17T22:31:48.365Z,5.35
2019-03-17T22:34:15.251Z,5.35
2019-03-17T22:36:41.995Z,5.58
2019-03-17T22:39:11.285Z,5.87
2019-03-17T22:41:37.311Z,6.17
2019-03-17T22:44:04.367Z,6.00
2019-03-17T22:46:31.103Z,6.03
2019-03-17T22:48:57.836Z,5.60
2019-03-17T22:51:24.575Z,5.12
2019-03-17T22:53:51.212Z,5.75
2019-03-17T22:56:18.975Z,5.97
2019-03-17T22:58:45.668Z,5.97
2019-03-17T23:01:12.338Z,5.15
2019-03-17T23:03:39.178Z,5.58
2019-03-17T23:06:05.883Z,6.30
2019-03-17T23:08:32.683Z,5.40
2019-03-17T23:10:59.426Z,5.25
2019-03-17T23:13:26.267Z,5.37
2019-03-17T23:15:52.894Z,4.97
2019-03-17T23:18:19.580Z,5.30
2019-03-17T23:20:46.266Z,5.60
2019-03-17T23:23:12.918Z,5.90
2019-03-17T23:25:39.546Z,6.10
2019-03-17T23:28:06.292Z,4.97
2019-03-17T23:30:32.896Z,5.20
2019-03-17T23:32:59.567Z,5.33
2019-03-17T23:35:26.371Z,5.87
2019-03-17T23:37:53.006Z,5.22
2019-03-17T23:40:19.681Z,6.75
2019-03-17T23:42:46.444Z,5.90
2019-03-17T23:45:13.328Z,6.83
2019-03-17T23:47:40.004Z,6.20
2019-03-17T23:50:13.396Z,5.97
2019-03-17T23:52:40.010Z,6.80
2019-03-17T23:55:09.225Z,6.70
2019-03-17T23:57:35.921Z,6.35
